sensor_id;sensor_type;location;lat;lon;timestamp;temperature;humidity
6863;DHT22;3470;48.738;9.616;2022-09-12T00:03:29;11.30;99.90
6863;DHT22;3470;48.738;9.616;2022-09-12T00:05:54;11.30;99.90
6863;DHT22;3470;48.738;9.616;2022-09-12T00:08:20;11.20;99.90
6863;DHT22;3470;48.738;9.616;2022-09-12T00:10:45;11.20;99.90
6863;DHT22;3470;48.738;9.616;2022-09-12T00:13:11;11.10;99.90
6863;DHT22;3470;48.738;9.616;2022-09-12T00:15:39;11.10;99.90
6863;DHT22;3470;48.738;9.616;2022-09-12T00:18:06;11.10;99.90
6863;DHT22;3470;48.738;9.616;2022-09-12T00:20:32;11.10;99.90
6863;DHT22;3470;48.738;9.616;2022-09-12T00:22:58;11.10;99.90
6863;DHT22;3470;48.738;9.616;2022-09-12T00:25:23;11.20;99.90
6863;DHT22;3470;48.738;9.616;2022-09-12T00:27:49;11.20;99.90
6863;DHT22;3470;48.738;9.616;2022-09-12T00:30:14;11.20;99.90
6863;DHT22;3470;48.738;9.616;2022-09-12T00:32:40;11.20;99.90
6863;DHT22;3470;48.738;9.616;2022-09-12T00:35:06;11.10;99.90
6863;DHT22;3470;48.738;9.616;2022-09-12T00:37:33;11.10;99.90
6863;DHT22;3470;48.738;9.616;2022-09-12T00:39:59;11.30;99.90
6863;DHT22;3470;48.738;9.616;2022-09-12T00:42:24;11.40;99.90
6863;DHT22;3470;48.738;9.616;2022-09-12T00:44:51;11.40;99.90
6863;DHT22;3470;48.738;9.616;2022-09-12T00:49:56;11.30;99.90
6863;DHT22;3470;48.738;9.616;2022-09-12T00:52:36;11.20;99.90
6863;DHT22;3470;48.738;9.616;2022-09-12T00:55:12;11.20;99.90
6863;DHT22;3470;48.738;9.616;2022-09-12T00:57:57;11.10;99.90
6863;DHT22;3470;48.738;9.616;2022-09-12T01:00:25;11.00;99.90
6863;DHT22;3470;48.738;9.616;2022-09-12T01:02:57;11.00;99.90
6863;DHT22;3470;48.738;9.616;2022-09-12T01:05:26;11.00;99.90
6863;DHT22;3470;48.738;9.616;2022-09-12T01:07:53;10.90;99.90
6863;DHT22;3470;48.738;9.616;2022-09-12T01:10:20;10.80;99.90
6863;DHT22;3470;48.738;9.616;2022-09-12T01:12:47;10.70;99.90
6863;DHT22;3470;48.738;9.616;2022-09-12T01:15:13;10.60;99.90
6863;DHT22;3470;48.738;9.616;2022-09-12T01:18:04;10.60;99.90
6863;DHT22;3470;48.738;9.616;2022-09-12T01:26:52;10.50;99.90
6863;DHT22;3470;48.738;9.616;2022-09-12T01:34:45;10.20;99.90
6863;DHT22;3470;48.738;9.616;2022-09-12T01:37:20;10.20;99.90
6863;DHT22;3470;48.738;9.616;2022-09-12T01:47:50;10.20;99.90
6863;DHT22;3470;48.738;9.616;2022-09-12T01:50:27;10.30;99.90
6863;DHT22;3470;48.738;9.616;2022-09-12T01:53:03;10.40;99.90
6863;DHT22;3470;48.738;9.616;2022-09-12T01:55:35;10.40;99.90
6863;DHT22;3470;48.738;9.616;2022-09-12T02:01:01;10.40;99.90
6863;DHT22;3470;48.738;9.616;2022-09-12T02:04:08;10.30;99.90
6863;DHT22;3470;48.738;9.616;2022-09-12T02:06:34;10.30;99.90
6863;DHT22;3470;48.738;9.616;2022-09-12T02:09:08;10.30;99.90
6863;DHT22;3470;48.738;9.616;2022-09-12T02:11:39;10.30;99.90
6863;DHT22;3470;48.738;9.616;2022-09-12T02:14:09;10.30;99.90
6863;DHT22;3470;48.738;9.616;2022-09-12T02:17:05;10.30;99.90
6863;DHT22;3470;48.738;9.616;2022-09-12T02:19:40;10.30;99.90
6863;DHT22;3470;48.738;9.616;2022-09-12T02:22:12;10.30;99.90
6863;DHT22;3470;48.738;9.616;2022-09-12T02:24:42;10.40;99.90
6863;DHT22;3470;48.738;9.616;2022-09-12T02:27:13;10.50;99.90
6863;DHT22;3470;48.738;9.616;2022-09-12T02:29:40;10.50;99.90
6863;DHT22;3470;48.738;9.616;2022-09-12T02:32:30;10.50;99.90
6863;DHT22;3470;48.738;9.616;2022-09-12T02:37:55;10.30;99.90
6863;DHT22;3470;48.738;9.616;2022-09-12T02:40:22;10.20;99.90
6863;DHT22;3470;48.738;9.616;2022-09-12T02:42:48;10.00;99.90
6863;DHT22;3470;48.738;9.616;2022-09-12T02:45:14;9.90;99.90
6863;DHT22;3470;48.738;9.616;2022-09-12T02:47:45;9.90;99.90
6863;DHT22;3470;48.738;9.616;2022-09-12T02:50:12;9.90;99.90
6863;DHT22;3470;48.738;9.616;2022-09-12T02:52:39;9.90;99.90
6863;DHT22;3470;48.738;9.616;2022-09-12T02:55:06;9.90;99.90
6863;DHT22;3470;48.738;9.616;2022-09-12T02:57:32;9.80;99.90
6863;DHT22;3470;48.738;9.616;2022-09-12T03:00:00;9.80;99.90
6863;DHT22;3470;48.738;9.616;2022-09-12T03:02:28;9.80;99.90
6863;DHT22;3470;48.738;9.616;2022-09-12T03:05:22;9.70;99.90
6863;DHT22;3470;48.738;9.616;2022-09-12T03:08:20;9.70;99.90
6863;DHT22;3470;48.738;9.616;2022-09-12T03:11:08;9.70;99.90
6863;DHT22;3470;48.738;9.616;2022-09-12T03:14:33;9.70;99.90
6863;DHT22;3470;48.738;9.616;2022-09-12T03:19:38;9.70;99.90
6863;DHT22;3470;48.738;9.616;2022-09-12T03:22:52;9.80;99.90
6863;DHT22;3470;48.738;9.616;2022-09-12T03:25:27;9.80;99.90
6863;DHT22;3470;48.738;9.616;2022-09-12T03:28:10;9.80;99.90
6863;DHT22;3470;48.738;9.616;2022-09-12T03:30:41;9.80;99.90
6863;DHT22;3470;48.738;9.616;2022-09-12T03:33:10;9.90;99.90
6863;DHT22;3470;48.738;9.616;2022-09-12T03:35:36;9.80;99.90
6863;DHT22;3470;48.738;9.616;2022-09-12T03:38:01;9.80;99.90
6863;DHT22;3470;48.738;9.616;2022-09-12T03:40:27;9.80;99.90
6863;DHT22;3470;48.738;9.616;2022-09-12T03:42:53;9.80;99.90
6863;DHT22;3470;48.738;9.616;2022-09-12T03:45:18;9.80;99.90
6863;DHT22;3470;48.738;9.616;2022-09-12T03:47:44;9.80;99.90
6863;DHT22;3470;48.738;9.616;2022-09-12T03:50:10;9.80;99.90
6863;DHT22;3470;48.738;9.616;2022-09-12T03:52:35;9.90;99.90
6863;DHT22;3470;48.738;9.616;2022-09-12T03:55:01;9.90;99.90
6863;DHT22;3470;48.738;9.616;2022-09-12T03:57:27;9.90;99.90
6863;DHT22;3470;48.738;9.616;2022-09-12T03:59:52;9.90;99.90
6863;DHT22;3470;48.738;9.616;2022-09-12T04:02:18;9.80;99.90
6863;DHT22;3470;48.738;9.616;2022-09-12T04:04:44;9.60;99.90
6863;DHT22;3470;48.738;9.616;2022-09-12T04:07:10;9.50;99.90
6863;DHT22;3470;48.738;9.616;2022-09-12T04:09:36;9.40;99.90
6863;DHT22;3470;48.738;9.616;2022-09-12T04:12:02;9.30;99.90
6863;DHT22;3470;48.738;9.616;2022-09-12T04:14:28;9.30;99.90
6863;DHT22;3470;48.738;9.616;2022-09-12T04:16:53;9.30;99.90
6863;DHT22;3470;48.738;9.616;2022-09-12T04:19:19;9.20;99.90
6863;DHT22;3470;48.738;9.616;2022-09-12T04:21:44;9.10;99.90
6863;DHT22;3470;48.738;9.616;2022-09-12T04:24:10;9.10;99.90
6863;DHT22;3470;48.738;9.616;2022-09-12T04:26:36;9.10;99.90
6863;DHT22;3470;48.738;9.616;2022-09-12T04:29:02;9.10;99.90
6863;DHT22;3470;48.738;9.616;2022-09-12T04:31:27;9.10;99.90
6863;DHT22;3470;48.738;9.616;2022-09-12T04:33:54;9.00;99.90
6863;DHT22;3470;48.738;9.616;2022-09-12T04:36:21;9.00;99.90
6863;DHT22;3470;48.738;9.616;2022-09-12T04:38:47;8.90;99.90
6863;DHT22;3470;48.738;9.616;2022-09-12T04:41:16;8.90;99.90
6863;DHT22;3470;48.738;9.616;2022-09-12T04:43:42;8.90;99.90
6863;DHT22;3470;48.738;9.616;2022-09-12T04:46:12;8.90;99.90
6863;DHT22;3470;48.738;9.616;2022-09-12T04:48:39;9.00;99.90
6863;DHT22;3470;48.738;9.616;2022-09-12T04:53:32;9.00;99.90
6863;DHT22;3470;48.738;9.616;2022-09-12T04:56:03;9.00;99.90
6863;DHT22;3470;48.738;9.616;2022-09-12T04:58:30;9.10;99.90
6863;DHT22;3470;48.738;9.616;2022-09-12T05:01:03;9.10;99.90
6863;DHT22;3470;48.738;9.616;2022-09-12T05:03:29;9.20;99.90
6863;DHT22;3470;48.738;9.616;2022-09-12T05:05:54;9.20;99.90
6863;DHT22;3470;48.738;9.616;2022-09-12T05:08:20;9.30;99.90
6863;DHT22;3470;48.738;9.616;2022-09-12T05:10:45;9.30;99.90
6863;DHT22;3470;48.738;9.616;2022-09-12T05:13:11;9.40;99.90
6863;DHT22;3470;48.738;9.616;2022-09-12T05:15:36;9.50;99.90
6863;DHT22;3470;48.738;9.616;2022-09-12T05:18:02;9.50;99.90
6863;DHT22;3470;48.738;9.616;2022-09-12T05:20:28;9.60;99.90
6863;DHT22;3470;48.738;9.616;2022-09-12T05:22:53;9.70;99.90
6863;DHT22;3470;48.738;9.616;2022-09-12T05:25:20;9.70;99.90
6863;DHT22;3470;48.738;9.616;2022-09-12T05:27:45;9.80;99.90
6863;DHT22;3470;48.738;9.616;2022-09-12T05:30:11;9.90;99.90
6863;DHT22;3470;48.738;9.616;2022-09-12T05:32:37;9.90;99.90
6863;DHT22;3470;48.738;9.616;2022-09-12T05:35:02;10.00;99.90
6863;DHT22;3470;48.738;9.616;2022-09-12T05:37:28;10.20;99.90
6863;DHT22;3470;48.738;9.616;2022-09-12T05:39:54;10.20;99.90
6863;DHT22;3470;48.738;9.616;2022-09-12T05:42:20;10.30;99.90
6863;DHT22;3470;48.738;9.616;2022-09-12T05:44:45;10.50;99.90
6863;DHT22;3470;48.738;9.616;2022-09-12T05:47:11;10.60;99.90
6863;DHT22;3470;48.738;9.616;2022-09-12T05:49:37;10.80;99.90
6863;DHT22;3470;48.738;9.616;2022-09-12T05:52:02;11.10;99.90
6863;DHT22;3470;48.738;9.616;2022-09-12T05:54:28;11.50;99.90
6863;DHT22;3470;48.738;9.616;2022-09-12T05:56:54;11.80;99.90
6863;DHT22;3470;48.738;9.616;2022-09-12T05:59:20;12.20;99.90
6863;DHT22;3470;48.738;9.616;2022-09-12T06:01:46;12.60;99.90
6863;DHT22;3470;48.738;9.616;2022-09-12T06:04:13;13.00;99.90
6863;DHT22;3470;48.738;9.616;2022-09-12T06:06:40;13.50;99.90
6863;DHT22;3470;48.738;9.616;2022-09-12T06:09:07;14.10;99.90
6863;DHT22;3470;48.738;9.616;2022-09-12T06:11:35;14.50;99.90
6863;DHT22;3470;48.738;9.616;2022-09-12T06:14:01;15.00;99.90
6863;DHT22;3470;48.738;9.616;2022-09-12T06:16:30;15.50;99.90
6863;DHT22;3470;48.738;9.616;2022-09-12T06:18:58;16.00;99.90
6863;DHT22;3470;48.738;9.616;2022-09-12T06:21:25;16.70;99.90
6863;DHT22;3470;48.738;9.616;2022-09-12T06:23:53;17.20;99.90
6863;DHT22;3470;48.738;9.616;2022-09-12T06:26:19;17.70;99.90
6863;DHT22;3470;48.738;9.616;2022-09-12T06:28:48;18.00;99.90
6863;DHT22;3470;48.738;9.616;2022-09-12T06:31:32;18.40;99.90
6863;DHT22;3470;48.738;9.616;2022-09-12T06:34:03;18.80;99.90
6863;DHT22;3470;48.738;9.616;2022-09-12T06:36:37;19.20;99.90
6863;DHT22;3470;48.738;9.616;2022-09-12T06:39:10;19.60;99.90
6863;DHT22;3470;48.738;9.616;2022-09-12T06:41:36;19.80;99.90
6863;DHT22;3470;48.738;9.616;2022-09-12T06:44:02;20.20;99.90
6863;DHT22;3470;48.738;9.616;2022-09-12T06:46:28;20.20;99.90
6863;DHT22;3470;48.738;9.616;2022-09-12T06:48:55;20.40;99.60
6863;DHT22;3470;48.738;9.616;2022-09-12T06:51:22;20.40;98.50
6863;DHT22;3470;48.738;9.616;2022-09-12T06:53:48;20.70;97.90
6863;DHT22;3470;48.738;9.616;2022-09-12T06:56:16;21.00;97.30
6863;DHT22;3470;48.738;9.616;2022-09-12T06:58:42;21.50;96.10
6863;DHT22;3470;48.738;9.616;2022-09-12T07:01:16;22.20;94.30
6863;DHT22;3470;48.738;9.616;2022-09-12T07:03:46;22.50;93.30
6863;DHT22;3470;48.738;9.616;2022-09-12T07:06:14;22.80;93.10
6863;DHT22;3470;48.738;9.616;2022-09-12T07:08:40;22.80;92.10
6863;DHT22;3470;48.738;9.616;2022-09-12T07:13:42;23.90;90.30
6863;DHT22;3470;48.738;9.616;2022-09-12T07:16:09;24.50;88.20
6863;DHT22;3470;48.738;9.616;2022-09-12T07:18:35;24.60;88.50
6863;DHT22;3470;48.738;9.616;2022-09-12T07:21:05;24.90;85.80
6863;DHT22;3470;48.738;9.616;2022-09-12T07:23:31;25.10;85.60
6863;DHT22;3470;48.738;9.616;2022-09-12T07:25:58;25.60;83.80
6863;DHT22;3470;48.738;9.616;2022-09-12T07:28:26;26.10;81.60
6863;DHT22;3470;48.738;9.616;2022-09-12T07:30:52;26.60;80.10
6863;DHT22;3470;48.738;9.616;2022-09-12T07:33:22;27.00;77.90
6863;DHT22;3470;48.738;9.616;2022-09-12T07:35:48;27.20;78.60
6863;DHT22;3470;48.738;9.616;2022-09-12T07:38:14;27.20;77.60
6863;DHT22;3470;48.738;9.616;2022-09-12T07:40:41;27.70;76.30
6863;DHT22;3470;48.738;9.616;2022-09-12T07:43:06;27.60;75.70
6863;DHT22;3470;48.738;9.616;2022-09-12T07:45:32;28.40;75.00
6863;DHT22;3470;48.738;9.616;2022-09-12T07:47:57;28.90;74.00
6863;DHT22;3470;48.738;9.616;2022-09-12T07:50:23;29.20;72.80
6863;DHT22;3470;48.738;9.616;2022-09-12T07:52:49;29.10;72.40
6863;DHT22;3470;48.738;9.616;2022-09-12T07:55:15;29.40;71.90
6863;DHT22;3470;48.738;9.616;2022-09-12T07:57:41;29.70;72.60
6863;DHT22;3470;48.738;9.616;2022-09-12T08:00:07;30.10;71.30
6863;DHT22;3470;48.738;9.616;2022-09-12T08:02:33;30.00;69.90
6863;DHT22;3470;48.738;9.616;2022-09-12T08:04:59;30.40;69.10
6863;DHT22;3470;48.738;9.616;2022-09-12T08:07:24;30.40;68.80
6863;DHT22;3470;48.738;9.616;2022-09-12T08:09:50;30.80;67.30
6863;DHT22;3470;48.738;9.616;2022-09-12T08:12:16;30.90;67.00
6863;DHT22;3470;48.738;9.616;2022-09-12T08:14:42;32.10;64.10
6863;DHT22;3470;48.738;9.616;2022-09-12T08:17:08;32.20;63.60
6863;DHT22;3470;48.738;9.616;2022-09-12T08:19:34;32.30;61.60
6863;DHT22;3470;48.738;9.616;2022-09-12T08:21:59;32.20;62.30
6863;DHT22;3470;48.738;9.616;2022-09-12T08:24:25;31.80;62.90
6863;DHT22;3470;48.738;9.616;2022-09-12T08:26:51;31.80;63.60
6863;DHT22;3470;48.738;9.616;2022-09-12T08:29:16;32.00;63.10
6863;DHT22;3470;48.738;9.616;2022-09-12T08:31:42;31.80;61.00
6863;DHT22;3470;48.738;9.616;2022-09-12T08:34:08;31.60;62.40
6863;DHT22;3470;48.738;9.616;2022-09-12T08:36:34;32.00;61.50
6863;DHT22;3470;48.738;9.616;2022-09-12T08:39:02;32.70;60.90
6863;DHT22;3470;48.738;9.616;2022-09-12T08:41:47;32.70;59.60
6863;DHT22;3470;48.738;9.616;2022-09-12T08:47:20;33.50;58.70
6863;DHT22;3470;48.738;9.616;2022-09-12T08:53:03;33.70;57.10
6863;DHT22;3470;48.738;9.616;2022-09-12T08:55:37;34.80;55.70
6863;DHT22;3470;48.738;9.616;2022-09-12T08:58:14;35.00;55.40
6863;DHT22;3470;48.738;9.616;2022-09-12T09:09:18;35.90;54.40
6863;DHT22;3470;48.738;9.616;2022-09-12T09:12:13;35.20;54.50
6863;DHT22;3470;48.738;9.616;2022-09-12T09:18:01;35.50;53.80
6863;DHT22;3470;48.738;9.616;2022-09-12T09:20:51;35.20;53.40
6863;DHT22;3470;48.738;9.616;2022-09-12T09:23:39;35.50;52.90
6863;DHT22;3470;48.738;9.616;2022-09-12T09:26:14;36.00;52.70
6863;DHT22;3470;48.738;9.616;2022-09-12T09:28:50;36.70;50.70
6863;DHT22;3470;48.738;9.616;2022-09-12T09:31:18;36.90;51.40
6863;DHT22;3470;48.738;9.616;2022-09-12T09:33:48;37.10;50.70
6863;DHT22;3470;48.738;9.616;2022-09-12T09:36:21;37.00;50.90
6863;DHT22;3470;48.738;9.616;2022-09-12T09:39:05;38.40;49.80
6863;DHT22;3470;48.738;9.616;2022-09-12T09:44:08;36.60;49.60
6863;DHT22;3470;48.738;9.616;2022-09-12T09:46:34;35.40;52.40
6863;DHT22;3470;48.738;9.616;2022-09-12T09:49:00;35.40;52.20
6863;DHT22;3470;48.738;9.616;2022-09-12T09:51:34;35.90;50.80
6863;DHT22;3470;48.738;9.616;2022-09-12T09:54:15;36.20;50.90
6863;DHT22;3470;48.738;9.616;2022-09-12T09:56:42;35.80;49.10
6863;DHT22;3470;48.738;9.616;2022-09-12T09:59:11;36.10;49.40
6863;DHT22;3470;48.738;9.616;2022-09-12T10:04:40;36.10;49.40
6863;DHT22;3470;48.738;9.616;2022-09-12T10:07:17;35.20;49.50
6863;DHT22;3470;48.738;9.616;2022-09-12T10:10:15;35.30;50.00
6863;DHT22;3470;48.738;9.616;2022-09-12T10:12:41;35.30;48.60
6863;DHT22;3470;48.738;9.616;2022-09-12T10:15:19;35.70;49.30
6863;DHT22;3470;48.738;9.616;2022-09-12T10:17:47;35.80;48.80
6863;DHT22;3470;48.738;9.616;2022-09-12T10:20:39;35.50;49.00
6863;DHT22;3470;48.738;9.616;2022-09-12T10:23:31;35.40;49.70
6863;DHT22;3470;48.738;9.616;2022-09-12T10:26:02;36.20;49.10
6863;DHT22;3470;48.738;9.616;2022-09-12T10:28:37;37.50;47.20
6863;DHT22;3470;48.738;9.616;2022-09-12T10:31:06;37.50;45.90
6863;DHT22;3470;48.738;9.616;2022-09-12T10:33:42;37.00;48.20
6863;DHT22;3470;48.738;9.616;2022-09-12T10:36:11;36.00;48.50
6863;DHT22;3470;48.738;9.616;2022-09-12T10:38:37;36.20;48.80
6863;DHT22;3470;48.738;9.616;2022-09-12T10:41:06;36.20;48.10
6863;DHT22;3470;48.738;9.616;2022-09-12T10:46:19;35.90;49.60
6863;DHT22;3470;48.738;9.616;2022-09-12T10:48:49;36.80;48.50
6863;DHT22;3470;48.738;9.616;2022-09-12T10:53:52;36.50;47.50
6863;DHT22;3470;48.738;9.616;2022-09-12T10:56:21;36.90;46.60
6863;DHT22;3470;48.738;9.616;2022-09-12T10:59:21;37.60;46.90
6863;DHT22;3470;48.738;9.616;2022-09-12T11:02:01;38.70;45.80
6863;DHT22;3470;48.738;9.616;2022-09-12T11:07:51;38.70;45.10
6863;DHT22;3470;48.738;9.616;2022-09-12T11:22:34;38.30;45.90
6863;DHT22;3470;48.738;9.616;2022-09-12T11:25:17;37.50;46.80
6863;DHT22;3470;48.738;9.616;2022-09-12T11:30:18;38.40;45.10
6863;DHT22;3470;48.738;9.616;2022-09-12T11:35:29;36.70;46.50
6863;DHT22;3470;48.738;9.616;2022-09-12T11:38:32;35.90;47.20
6863;DHT22;3470;48.738;9.616;2022-09-12T11:41:11;35.60;47.90
6863;DHT22;3470;48.738;9.616;2022-09-12T11:43:49;34.50;48.70
6863;DHT22;3470;48.738;9.616;2022-09-12T11:46:34;34.20;49.30
6863;DHT22;3470;48.738;9.616;2022-09-12T11:51:35;35.40;48.80
6863;DHT22;3470;48.738;9.616;2022-09-12T11:56:43;35.70;47.50
6863;DHT22;3470;48.738;9.616;2022-09-12T11:59:17;35.60;48.70
6863;DHT22;3470;48.738;9.616;2022-09-12T12:01:46;36.00;47.30
6863;DHT22;3470;48.738;9.616;2022-09-12T12:04:19;35.80;48.20
6863;DHT22;3470;48.738;9.616;2022-09-12T12:07:00;36.60;47.00
6863;DHT22;3470;48.738;9.616;2022-09-12T12:09:27;36.10;46.40
6863;DHT22;3470;48.738;9.616;2022-09-12T12:11:55;35.10;48.60
6863;DHT22;3470;48.738;9.616;2022-09-12T12:14:43;34.70;48.60
6863;DHT22;3470;48.738;9.616;2022-09-12T12:17:18;35.20;48.70
6863;DHT22;3470;48.738;9.616;2022-09-12T12:19:45;35.40;47.90
6863;DHT22;3470;48.738;9.616;2022-09-12T12:22:22;35.40;48.30
6863;DHT22;3470;48.738;9.616;2022-09-12T12:25:02;35.90;48.20
6863;DHT22;3470;48.738;9.616;2022-09-12T12:27:57;36.10;46.60
6863;DHT22;3470;48.738;9.616;2022-09-12T12:38:35;38.40;44.80
6863;DHT22;3470;48.738;9.616;2022-09-12T12:43:53;37.20;44.80
6863;DHT22;3470;48.738;9.616;2022-09-12T12:46:22;37.20;45.60
6863;DHT22;3470;48.738;9.616;2022-09-12T12:48:52;38.00;44.30
6863;DHT22;3470;48.738;9.616;2022-09-12T12:54:25;38.60;43.40
6863;DHT22;3470;48.738;9.616;2022-09-12T12:59:54;39.70;42.90
6863;DHT22;3470;48.738;9.616;2022-09-12T13:02:40;38.40;43.30
6863;DHT22;3470;48.738;9.616;2022-09-12T17:43:24;20.30;79.30
6863;DHT22;3470;48.738;9.616;2022-09-12T17:45:54;19.80;80.40
6863;DHT22;3470;48.738;9.616;2022-09-12T17:48:21;19.60;79.70
6863;DHT22;3470;48.738;9.616;2022-09-12T17:50:47;19.50;80.20
6863;DHT22;3470;48.738;9.616;2022-09-12T17:53:13;19.30;80.10
6863;DHT22;3470;48.738;9.616;2022-09-12T17:55:38;19.20;80.00
6863;DHT22;3470;48.738;9.616;2022-09-12T17:58:06;19.20;80.80
6863;DHT22;3470;48.738;9.616;2022-09-12T18:00:33;19.10;82.30
6863;DHT22;3470;48.738;9.616;2022-09-12T18:03:20;18.90;82.50
6863;DHT22;3470;48.738;9.616;2022-09-12T18:05:54;18.80;84.50
6863;DHT22;3470;48.738;9.616;2022-09-12T18:08:21;18.70;84.20
6863;DHT22;3470;48.738;9.616;2022-09-12T18:10:48;18.50;84.10
6863;DHT22;3470;48.738;9.616;2022-09-12T18:13:14;18.50;83.90
6863;DHT22;3470;48.738;9.616;2022-09-12T18:15:40;18.30;85.30
6863;DHT22;3470;48.738;9.616;2022-09-12T18:18:06;18.30;85.10
6863;DHT22;3470;48.738;9.616;2022-09-12T18:20:32;18.30;85.40
6863;DHT22;3470;48.738;9.616;2022-09-12T18:22:58;18.30;85.10
6863;DHT22;3470;48.738;9.616;2022-09-12T18:25:24;18.20;85.20
6863;DHT22;3470;48.738;9.616;2022-09-12T18:27:50;18.20;86.30
6863;DHT22;3470;48.738;9.616;2022-09-12T18:30:15;18.10;86.80
6863;DHT22;3470;48.738;9.616;2022-09-12T18:32:44;18.00;87.80
6863;DHT22;3470;48.738;9.616;2022-09-12T18:35:10;17.90;89.00
6863;DHT22;3470;48.738;9.616;2022-09-12T18:37:36;17.80;89.40
6863;DHT22;3470;48.738;9.616;2022-09-12T18:40:03;17.70;90.10
6863;DHT22;3470;48.738;9.616;2022-09-12T18:42:28;17.60;90.20
6863;DHT22;3470;48.738;9.616;2022-09-12T18:44:54;17.60;90.40
6863;DHT22;3470;48.738;9.616;2022-09-12T18:47:19;17.40;90.60
6863;DHT22;3470;48.738;9.616;2022-09-12T18:49:45;17.40;90.90
6863;DHT22;3470;48.738;9.616;2022-09-12T18:52:11;17.30;91.30
6863;DHT22;3470;48.738;9.616;2022-09-12T18:54:36;17.30;91.50
6863;DHT22;3470;48.738;9.616;2022-09-12T18:57:02;17.30;91.60
6863;DHT22;3470;48.738;9.616;2022-09-12T18:59:28;17.20;92.10
6863;DHT22;3470;48.738;9.616;2022-09-12T19:01:53;17.10;92.20
6863;DHT22;3470;48.738;9.616;2022-09-12T19:04:20;17.10;92.20
6863;DHT22;3470;48.738;9.616;2022-09-12T19:06:46;17.00;92.40
6863;DHT22;3470;48.738;9.616;2022-09-12T19:09:14;17.00;92.50
6863;DHT22;3470;48.738;9.616;2022-09-12T19:11:42;17.00;92.80
6863;DHT22;3470;48.738;9.616;2022-09-12T19:14:18;17.00;92.80
6863;DHT22;3470;48.738;9.616;2022-09-12T19:16:44;17.00;93.00
6863;DHT22;3470;48.738;9.616;2022-09-12T19:19:10;16.90;93.10
6863;DHT22;3470;48.738;9.616;2022-09-12T19:21:36;16.90;93.20
6863;DHT22;3470;48.738;9.616;2022-09-12T19:24:06;16.80;93.50
6863;DHT22;3470;48.738;9.616;2022-09-12T19:26:36;16.70;93.90
6863;DHT22;3470;48.738;9.616;2022-09-12T19:29:03;16.60;94.20
6863;DHT22;3470;48.738;9.616;2022-09-12T19:31:29;16.50;94.30
6863;DHT22;3470;48.738;9.616;2022-09-12T19:34:04;16.40;94.40
6863;DHT22;3470;48.738;9.616;2022-09-12T19:36:30;16.40;94.80
6863;DHT22;3470;48.738;9.616;2022-09-12T19:38:57;16.40;94.90
6863;DHT22;3470;48.738;9.616;2022-09-12T19:41:23;16.30;95.20
6863;DHT22;3470;48.738;9.616;2022-09-12T19:43:48;16.30;95.50
6863;DHT22;3470;48.738;9.616;2022-09-12T19:46:21;16.20;95.90
6863;DHT22;3470;48.738;9.616;2022-09-12T19:48:47;16.10;95.90
6863;DHT22;3470;48.738;9.616;2022-09-12T19:51:14;16.00;95.90
6863;DHT22;3470;48.738;9.616;2022-09-12T19:53:41;16.00;96.20
6863;DHT22;3470;48.738;9.616;2022-09-12T19:56:07;16.00;96.50
6863;DHT22;3470;48.738;9.616;2022-09-12T19:58:38;16.00;96.50
6863;DHT22;3470;48.738;9.616;2022-09-12T20:01:08;15.90;96.50
6863;DHT22;3470;48.738;9.616;2022-09-12T20:03:34;15.90;96.50
6863;DHT22;3470;48.738;9.616;2022-09-12T20:06:04;15.90;96.60
6863;DHT22;3470;48.738;9.616;2022-09-12T20:08:30;15.90;96.50
6863;DHT22;3470;48.738;9.616;2022-09-12T20:10:56;16.00;96.60
6863;DHT22;3470;48.738;9.616;2022-09-12T20:13:22;16.00;96.40
6863;DHT22;3470;48.738;9.616;2022-09-12T20:15:47;16.00;96.50
6863;DHT22;3470;48.738;9.616;2022-09-12T20:18:13;16.00;96.60
6863;DHT22;3470;48.738;9.616;2022-09-12T20:20:38;15.90;96.50
6863;DHT22;3470;48.738;9.616;2022-09-12T20:23:04;16.00;96.60
6863;DHT22;3470;48.738;9.616;2022-09-12T20:25:30;15.90;96.50
6863;DHT22;3470;48.738;9.616;2022-09-12T20:27:55;15.90;96.50
6863;DHT22;3470;48.738;9.616;2022-09-12T20:30:21;15.90;96.60
6863;DHT22;3470;48.738;9.616;2022-09-12T20:32:47;15.90;96.60
6863;DHT22;3470;48.738;9.616;2022-09-12T20:35:12;15.90;96.70
6863;DHT22;3470;48.738;9.616;2022-09-12T20:37:38;15.90;96.60
6863;DHT22;3470;48.738;9.616;2022-09-12T20:40:06;15.80;96.60
6863;DHT22;3470;48.738;9.616;2022-09-12T20:42:32;15.80;96.70
6863;DHT22;3470;48.738;9.616;2022-09-12T20:44:57;15.80;96.90
6863;DHT22;3470;48.738;9.616;2022-09-12T20:47:23;15.70;97.00
6863;DHT22;3470;48.738;9.616;2022-09-12T20:49:48;15.60;97.20
6863;DHT22;3470;48.738;9.616;2022-09-12T20:52:14;15.60;97.20
6863;DHT22;3470;48.738;9.616;2022-09-12T20:54:39;15.50;97.30
6863;DHT22;3470;48.738;9.616;2022-09-12T20:57:05;15.60;97.20
6863;DHT22;3470;48.738;9.616;2022-09-12T20:59:31;15.50;97.20
6863;DHT22;3470;48.738;9.616;2022-09-12T21:01:57;15.60;97.10
6863;DHT22;3470;48.738;9.616;2022-09-12T21:04:22;15.50;97.10
6863;DHT22;3470;48.738;9.616;2022-09-12T21:06:49;15.60;97.10
6863;DHT22;3470;48.738;9.616;2022-09-12T21:09:15;15.60;97.10
6863;DHT22;3470;48.738;9.616;2022-09-12T21:11:40;15.50;97.30
6863;DHT22;3470;48.738;9.616;2022-09-12T21:14:06;15.30;97.40
6863;DHT22;3470;48.738;9.616;2022-09-12T21:16:31;15.20;97.90
6863;DHT22;3470;48.738;9.616;2022-09-12T21:19:03;15.00;98.30
6863;DHT22;3470;48.738;9.616;2022-09-12T21:21:30;15.00;98.70
6863;DHT22;3470;48.738;9.616;2022-09-12T21:23:59;14.90;99.00
6863;DHT22;3470;48.738;9.616;2022-09-12T21:26:27;14.80;99.30
6863;DHT22;3470;48.738;9.616;2022-09-12T21:28:53;14.80;99.40
6863;DHT22;3470;48.738;9.616;2022-09-12T21:31:18;14.70;99.40
6863;DHT22;3470;48.738;9.616;2022-09-12T21:33:44;14.90;99.50
6863;DHT22;3470;48.738;9.616;2022-09-12T21:36:10;14.90;99.30
6863;DHT22;3470;48.738;9.616;2022-09-12T21:38:36;15.00;99.30
6863;DHT22;3470;48.738;9.616;2022-09-12T21:41:07;15.00;99.20
6863;DHT22;3470;48.738;9.616;2022-09-12T21:43:34;15.10;99.50
6863;DHT22;3470;48.738;9.616;2022-09-12T21:45:59;15.10;99.20
6863;DHT22;3470;48.738;9.616;2022-09-12T21:48:25;15.10;99.20
6863;DHT22;3470;48.738;9.616;2022-09-12T21:50:51;15.00;99.40
6863;DHT22;3470;48.738;9.616;2022-09-12T21:53:16;14.90;99.50
6863;DHT22;3470;48.738;9.616;2022-09-12T21:55:42;14.90;99.70
6863;DHT22;3470;48.738;9.616;2022-09-12T21:58:08;14.80;99.80
6863;DHT22;3470;48.738;9.616;2022-09-12T22:00:34;14.80;99.90
6863;DHT22;3470;48.738;9.616;2022-09-12T22:02:59;14.80;99.90
6863;DHT22;3470;48.738;9.616;2022-09-12T22:05:26;14.80;99.90
6863;DHT22;3470;48.738;9.616;2022-09-12T22:07:56;14.80;99.90
6863;DHT22;3470;48.738;9.616;2022-09-12T22:10:23;14.80;99.90
6863;DHT22;3470;48.738;9.616;2022-09-12T22:12:49;14.80;99.90
6863;DHT22;3470;48.738;9.616;2022-09-12T22:15:15;14.80;99.90
6863;DHT22;3470;48.738;9.616;2022-09-12T22:17:40;14.80;99.90
6863;DHT22;3470;48.738;9.616;2022-09-12T22:20:06;14.70;99.90
6863;DHT22;3470;48.738;9.616;2022-09-12T22:22:34;14.80;99.90
6863;DHT22;3470;48.738;9.616;2022-09-12T22:25:18;14.80;99.90
6863;DHT22;3470;48.738;9.616;2022-09-12T22:27:48;14.80;99.90
6863;DHT22;3470;48.738;9.616;2022-09-12T22:30:14;14.70;99.90
6863;DHT22;3470;48.738;9.616;2022-09-12T22:32:39;14.60;99.90
6863;DHT22;3470;48.738;9.616;2022-09-12T22:35:05;14.50;99.90
6863;DHT22;3470;48.738;9.616;2022-09-12T22:37:31;14.40;99.90
6863;DHT22;3470;48.738;9.616;2022-09-12T22:39:57;14.40;99.90
6863;DHT22;3470;48.738;9.616;2022-09-12T22:42:22;14.30;99.90
6863;DHT22;3470;48.738;9.616;2022-09-12T22:44:48;14.30;99.90
6863;DHT22;3470;48.738;9.616;2022-09-12T22:47:13;14.40;99.90